createdAt,value
2019-04-29T00:00:36.322Z,35.10
2019-04-29T00:03:29.248Z,37.70
2019-04-29T00:05:57.900Z,39.90
2019-04-29T00:08:26.429Z,34.27
2019-04-29T00:10:56.892Z,38.57
2019-04-29T00:13:25.448Z,40.00
2019-04-29T00:15:58.474Z,38.17
2019-04-29T00:18:28.579Z,42.27
2019-04-29T00:21:01.412Z,41.53
2019-04-29T00:23:29.961Z,43.80
2019-04-29T00:26:01.602Z,41.70
2019-04-29T00:28:30.583Z,41.47
2019-04-29T00:30:59.799Z,43.13
2019-04-29T00:33:35.237Z,41.63
2019-04-29T00:36:06.985Z,40.23
2019-04-29T00:38:46.135Z,34.20
2019-04-29T00:41:22.075Z,41.23
2019-04-29T00:43:52.379Z,42.53
2019-04-29T00:46:20.863Z,38.17
2019-04-29T00:48:51.009Z,43.60
2019-04-29T00:51:19.471Z,38.95
2019-04-29T00:53:51.437Z,37.83
2019-04-29T00:56:20.207Z,36.80
2019-04-29T00:58:49.687Z,36.10
2019-04-29T01:01:19.827Z,36.23
2019-04-29T01:03:52.975Z,38.70
2019-04-29T01:06:21.636Z,36.83
2019-04-29T01:08:50.243Z,38.33
2019-04-29T01:11:39.615Z,42.67
2019-04-29T01:14:08.337Z,34.63
2019-04-29T01:16:50.061Z,40.60
2019-04-29T01:19:15.931Z,36.10
2019-04-29T01:21:45.989Z,34.48
2019-04-29T01:24:14.534Z,33.63
2019-04-29T01:26:44.662Z,34.87
2019-04-29T01:29:14.931Z,36.50
2019-04-29T01:31:45.494Z,39.53
2019-04-29T01:34:15.863Z,32.40
2019-04-29T01:36:47.260Z,39.10
2019-04-29T01:39:16.263Z,41.63
2019-04-29T01:41:58.714Z,41.37
2019-04-29T01:44:36.186Z,38.33
2019-04-29T01:47:07.618Z,33.53
2019-04-29T01:49:36.075Z,36.00
2019-04-29T01:52:18.159Z,34.43
2019-04-29T01:54:46.694Z,34.50
2019-04-29T01:57:16.690Z,34.33
2019-04-29T01:59:45.164Z,33.40
2019-04-29T02:02:16.251Z,31.00
2019-04-29T02:04:46.306Z,33.73
2019-04-29T02:07:15.272Z,31.30
2019-04-29T02:09:45.365Z,30.57
2019-04-29T02:12:18.532Z,26.57
2019-04-29T02:14:50.792Z,29.10
2019-04-29T02:17:19.340Z,33.30
2019-04-29T02:19:47.830Z,33.37
2019-04-29T02:22:22.348Z,35.03
2019-04-29T02:24:52.546Z,32.90
2019-04-29T02:27:29.481Z,37.30
2019-04-29T02:30:03.731Z,36.63
2019-04-29T02:32:36.327Z,32.28
2019-04-29T02:35:07.343Z,32.23
2019-04-29T02:37:37.523Z,31.47
2019-04-29T02:40:10.351Z,33.07
2019-04-29T02:42:40.487Z,33.20
2019-04-29T02:45:10.913Z,36.57
2019-04-29T02:47:41.021Z,33.27
2019-04-29T02:50:10.437Z,34.27
2019-04-29T02:52:43.015Z,33.87
2019-04-29T02:55:14.884Z,30.83
2019-04-29T02:57:53.791Z,30.37
2019-04-29T03:00:33.036Z,31.73
2019-04-29T03:03:26.845Z,35.03
2019-04-29T03:06:01.190Z,35.13
2019-04-29T03:08:30.961Z,35.13
2019-04-29T03:10:59.493Z,32.30
2019-04-29T03:13:33.973Z,36.37
2019-04-29T03:16:06.877Z,36.03
2019-04-29T03:18:39.941Z,35.13
2019-04-29T03:21:22.907Z,37.07
2019-04-29T03:23:53.616Z,40.63
2019-04-29T03:26:22.147Z,37.53
2019-04-29T03:28:53.186Z,43.47
2019-04-29T03:31:21.707Z,39.17
2019-04-29T03:33:53.177Z,41.77
2019-04-29T03:36:23.275Z,43.43
2019-04-29T03:38:51.948Z,36.90
2019-04-29T03:41:21.336Z,36.93
2019-04-29T03:43:51.465Z,33.87
2019-04-29T03:46:23.566Z,40.30
2019-04-29T03:48:52.034Z,36.90
2019-04-29T03:51:23.541Z,38.03
2019-04-29T03:53:53.218Z,39.67
2019-04-29T03:56:24.577Z,41.93
2019-04-29T03:58:54.771Z,41.30
2019-04-29T04:01:31.248Z,40.83
2019-04-29T04:04:11.787Z,34.30
2019-04-29T04:06:43.654Z,32.93
2019-04-29T04:09:19.793Z,34.80
2019-04-29T04:11:48.416Z,35.80
2019-04-29T04:14:19.780Z,35.80
2019-04-29T04:17:09.726Z,36.05
2019-04-29T04:19:45.646Z,41.97
2019-04-29T04:22:14.356Z,38.10
2019-04-29T04:24:46.869Z,37.47
2019-04-29T04:27:20.047Z,39.77
2019-04-29T04:29:50.663Z,37.70
2019-04-29T04:32:19.342Z,36.00
2019-04-29T04:34:50.333Z,39.80
2019-04-29T04:37:38.223Z,39.70
2019-04-29T04:40:13.151Z,36.93
2019-04-29T04:42:50.371Z,35.97
2019-04-29T04:45:18.921Z,33.63
2019-04-29T04:47:47.460Z,40.57
2019-04-29T04:50:17.938Z,38.47
2019-04-29T04:52:56.623Z,34.53
2019-04-29T04:55:26.815Z,35.77
2019-04-29T04:57:55.347Z,44.57
2019-04-29T05:00:28.977Z,44.73
2019-04-29T05:03:00.221Z,41.13
2019-04-29T05:05:28.734Z,44.37
2019-04-29T05:08:00.133Z,40.13
2019-04-29T05:10:28.924Z,36.70
2019-04-29T05:13:00.882Z,28.00
2019-04-29T05:15:29.386Z,28.50
2019-04-29T05:18:00.603Z,22.90
2019-04-29T05:20:29.186Z,30.87
2019-04-29T05:22:59.297Z,27.67
2019-04-29T05:25:29.202Z,29.50
2019-04-29T05:27:57.674Z,25.10
2019-04-29T05:30:27.809Z,25.72
2019-04-29T05:32:56.334Z,30.23
2019-04-29T05:35:44.309Z,34.67
2019-04-29T05:38:21.954Z,33.17
2019-04-29T05:40:56.922Z,30.90
2019-04-29T05:43:34.846Z,26.60
2019-04-29T05:46:23.156Z,23.97
2019-04-29T05:48:52.118Z,25.37
2019-04-29T05:51:31.011Z,26.30
2019-04-29T05:54:01.130Z,28.27
2019-04-29T05:56:36.064Z,22.82
2019-04-29T05:59:12.896Z,23.97
2019-04-29T06:01:38.480Z,24.93
2019-04-29T06:04:07.096Z,26.90
2019-04-29T06:06:35.575Z,22.13
2019-04-29T06:09:07.067Z,23.45
2019-04-29T06:11:39.445Z,21.23
2019-04-29T06:14:08.127Z,22.30
2019-04-29T06:16:36.702Z,22.17
2019-04-29T06:19:07.197Z,24.33
2019-04-29T06:21:35.490Z,22.60
2019-04-29T06:24:14.506Z,25.13
2019-04-29T06:26:44.339Z,25.23
2019-04-29T06:29:18.053Z,22.10
2019-04-29T06:31:50.448Z,24.47
2019-04-29T06:34:22.691Z,24.10
2019-04-29T06:36:56.233Z,23.67
2019-04-29T06:39:24.718Z,23.00
2019-04-29T06:41:56.429Z,25.43
2019-04-29T06:44:28.809Z,28.93
2019-04-29T06:46:58.310Z,27.48
2019-04-29T06:49:29.575Z,28.87
2019-04-29T06:51:59.226Z,26.93
2019-04-29T06:54:29.385Z,26.12
2019-04-29T06:57:01.858Z,28.60
2019-04-29T06:59:30.485Z,29.23
2019-04-29T07:02:02.630Z,31.13
2019-04-29T07:04:36.980Z,29.23
2019-04-29T07:07:02.854Z,28.75
2019-04-29T07:09:31.344Z,31.00
2019-04-29T07:12:01.894Z,29.77
2019-04-29T07:14:33.326Z,29.03
2019-04-29T07:17:05.755Z,31.15
2019-04-29T07:19:35.013Z,28.97
2019-04-29T07:22:07.897Z,29.40
2019-04-29T07:24:39.308Z,29.10
2019-04-29T07:27:08.865Z,24.97
2019-04-29T07:29:38.227Z,26.90
2019-04-29T07:32:09.257Z,27.33
2019-04-29T07:34:39.617Z,27.40
2019-04-29T07:37:08.137Z,27.23
2019-04-29T07:39:38.315Z,30.37
2019-04-29T07:42:08.382Z,27.27
2019-04-29T07:44:44.052Z,26.12
2019-04-29T07:47:09.774Z,27.17
2019-04-29T07:49:38.446Z,23.97
2019-04-29T07:52:14.381Z,22.77
2019-04-29T07:54:40.185Z,23.47
2019-04-29T07:57:12.440Z,22.97
2019-04-29T07:59:42.115Z,22.67
2019-04-29T08:02:14.457Z,24.35
2019-04-29T08:04:50.190Z,23.30
2019-04-29T08:07:18.835Z,25.95
2019-04-29T08:09:48.453Z,26.00
2019-04-29T08:12:18.076Z,24.77
2019-04-29T08:14:49.160Z,24.87
2019-04-29T08:17:17.669Z,23.20
2019-04-29T08:19:50.455Z,26.12
2019-04-29T08:22:22.978Z,30.60
2019-04-29T08:24:52.226Z,25.13
2019-04-29T08:27:24.145Z,22.27
2019-04-29T08:29:54.833Z,21.43
2019-04-29T08:32:23.428Z,19.73
2019-04-29T08:34:57.494Z,18.40
2019-04-29T08:37:25.014Z,16.90
2019-04-29T08:40:16.091Z,17.87
2019-04-29T08:42:56.822Z,19.13
2019-04-29T08:45:49.058Z,16.67
2019-04-29T08:48:19.012Z,17.67
2019-04-29T08:50:47.656Z,17.12
2019-04-29T08:53:19.080Z,17.23
2019-04-29T08:55:50.554Z,17.10
2019-04-29T08:58:21.048Z,17.73
2019-04-29T09:00:51.273Z,17.33
2019-04-29T09:03:23.359Z,16.77
2019-04-29T09:06:04.459Z,15.77
2019-04-29T09:08:21.239Z,16.17
2019-04-29T09:10:52.359Z,15.27
2019-04-29T09:13:22.437Z,16.05
2019-04-29T09:15:51.394Z,17.47
2019-04-29T09:18:21.408Z,16.87
2019-04-29T09:20:53.820Z,15.57
2019-04-29T09:23:25.458Z,15.30
2019-04-29T09:26:02.911Z,16.60
2019-04-29T09:28:34.254Z,16.60
2019-04-29T09:31:02.924Z,16.10
2019-04-29T09:33:31.464Z,17.37
2019-04-29T09:35:59.938Z,17.50
2019-04-29T09:38:28.440Z,16.43
2019-04-29T09:41:05.409Z,17.60
2019-04-29T09:43:42.268Z,17.23
2019-04-29T09:46:13.993Z,17.13
2019-04-29T09:48:44.953Z,16.57
2019-04-29T09:51:17.826Z,16.82
2019-04-29T09:53:45.963Z,17.87
2019-04-29T09:56:17.722Z,16.57
2019-04-29T09:58:47.800Z,18.50
2019-04-29T10:01:28.566Z,17.23
2019-04-29T10:04:02.709Z,17.33
2019-04-29T10:06:36.893Z,16.03
2019-04-29T10:09:08.471Z,14.63
2019-04-29T10:11:42.600Z,15.57
2019-04-29T10:14:11.164Z,15.00
2019-04-29T10:16:51.490Z,16.20
2019-04-29T10:22:19.009Z,16.45
2019-04-29T10:24:52.187Z,16.20
2019-04-29T10:27:20.666Z,16.47
2019-04-29T10:29:55.295Z,15.83
2019-04-29T10:32:22.980Z,16.37
2019-04-29T10:34:51.449Z,16.32
2019-04-29T10:37:31.358Z,15.77
2019-04-29T10:40:11.019Z,17.00
2019-04-29T10:42:37.184Z,16.07
2019-04-29T10:45:22.491Z,16.17
2019-04-29T10:47:54.933Z,17.23
2019-04-29T10:50:25.526Z,17.67
2019-04-29T10:52:57.785Z,16.60
2019-04-29T10:55:30.082Z,16.03
2019-04-29T10:57:58.467Z,16.17
2019-04-29T11:01:07.044Z,16.20
2019-04-29T11:03:35.808Z,16.07
2019-04-29T11:06:04.710Z,16.13
2019-04-29T11:08:42.991Z,15.65
2019-04-29T11:11:24.159Z,14.83
2019-04-29T11:13:50.338Z,16.77
2019-04-29T11:16:16.930Z,15.77
2019-04-29T11:18:46.959Z,16.17
2019-04-29T11:21:16.981Z,15.90
2019-04-29T11:24:06.427Z,17.27
2019-04-29T11:26:48.238Z,15.83
2019-04-29T11:29:22.076Z,16.02
2019-04-29T11:31:54.188Z,16.07
2019-04-29T11:34:26.173Z,15.73
2019-04-29T11:36:57.920Z,16.10
2019-04-29T11:39:28.330Z,15.87
2019-04-29T11:41:59.807Z,20.40
2019-04-29T11:44:34.531Z,14.90
2019-04-29T11:47:07.713Z,16.77
2019-04-29T11:49:37.924Z,15.57
2019-04-29T11:52:09.514Z,15.90
2019-04-29T11:54:37.970Z,15.70
2019-04-29T11:57:08.073Z,14.35
2019-04-29T11:59:43.875Z,14.30
2019-04-29T12:02:14.245Z,16.63
2019-04-29T12:04:47.346Z,15.90
2019-04-29T12:07:21.029Z,17.10
2019-04-29T12:09:50.454Z,14.60
2019-04-29T12:12:19.869Z,14.63
2019-04-29T12:14:52.714Z,15.32
2019-04-29T12:17:29.803Z,12.63
2019-04-29T12:20:15.916Z,11.93
2019-04-29T12:22:48.564Z,13.47
2019-04-29T12:25:16.295Z,14.30
2019-04-29T12:27:52.740Z,15.23
2019-04-29T12:30:25.694Z,15.53
2019-04-29T12:32:57.008Z,16.67
2019-04-29T12:35:30.087Z,16.17
2019-04-29T12:38:05.859Z,15.70
2019-04-29T12:40:55.113Z,14.20
2019-04-29T12:43:35.760Z,14.70
2019-04-29T12:46:15.843Z,15.10
2019-04-29T12:48:48.481Z,12.07
2019-04-29T12:51:17.257Z,12.00
2019-04-29T12:53:50.313Z,12.10
2019-04-29T12:56:20.469Z,11.77
2019-04-29T12:58:50.837Z,11.40
2019-04-29T13:01:54.207Z,12.23
2019-04-29T13:04:28.012Z,11.97
2019-04-29T13:07:13.754Z,12.40
2019-04-29T13:09:49.593Z,11.33
2019-04-29T13:12:19.984Z,12.93
2019-04-29T13:15:03.045Z,14.27
2019-04-29T13:17:32.021Z,13.67
2019-04-29T13:20:07.200Z,10.43
2019-04-29T13:22:41.620Z,11.37
2019-04-29T13:25:11.331Z,11.93
2019-04-29T13:27:40.457Z,10.90
2019-04-29T13:30:16.225Z,11.22
2019-04-29T13:32:45.252Z,11.38
2019-04-29T13:35:14.050Z,11.53
2019-04-29T13:37:44.167Z,13.80
2019-04-29T13:40:14.347Z,14.07
2019-04-29T13:42:50.897Z,12.57
2019-04-29T13:45:24.885Z,9.83
2019-04-29T13:48:11.926Z,12.53
2019-04-29T13:50:43.343Z,12.68
2019-04-29T13:53:16.622Z,20.37
2019-04-29T13:55:50.091Z,13.03
2019-04-29T13:58:12.467Z,11.97
2019-04-29T14:00:42.654Z,14.10
2019-04-29T14:03:20.098Z,11.20
2019-04-29T14:05:48.650Z,12.37
2019-04-29T14:08:18.911Z,10.53
2019-04-29T14:10:51.106Z,10.63
2019-04-29T14:13:21.340Z,10.10
2019-04-29T14:15:51.872Z,10.87
2019-04-29T14:18:25.581Z,10.20
2019-04-29T14:20:54.378Z,9.47
2019-04-29T14:23:28.533Z,10.17
2019-04-29T14:25:58.558Z,10.00
2019-04-29T14:28:27.566Z,9.97
2019-04-29T14:30:56.108Z,9.30
2019-04-29T14:33:28.905Z,11.47
2019-04-29T14:35:59.663Z,9.77
2019-04-29T14:38:28.354Z,8.87
2019-04-29T14:41:02.739Z,8.73
2019-04-29T14:43:50.705Z,8.43
2019-04-29T14:46:19.712Z,9.73
2019-04-29T14:49:04.304Z,9.97
2019-04-29T14:51:36.605Z,9.67
2019-04-29T14:54:05.597Z,9.07
2019-04-29T14:56:36.029Z,10.07
2019-04-29T14:59:07.542Z,9.70
2019-04-29T15:01:42.925Z,8.50
2019-04-29T15:04:18.930Z,8.88
2019-04-29T15:06:46.429Z,8.83
2019-04-29T15:09:19.546Z,9.35
2019-04-29T15:11:54.562Z,8.43
2019-04-29T15:14:47.499Z,8.27
2019-04-29T15:17:16.949Z,8.27
2019-04-29T15:19:49.318Z,8.03
2019-04-29T15:22:18.998Z,9.20
2019-04-29T15:24:47.541Z,7.97
2019-04-29T15:27:28.107Z,8.17
2019-04-29T15:29:56.607Z,10.03
2019-04-29T15:32:35.697Z,7.60
2019-04-29T15:35:05.711Z,7.60
2019-04-29T15:37:36.680Z,8.53
2019-04-29T15:40:07.425Z,7.70
2019-04-29T15:42:41.951Z,7.20
2019-04-29T15:45:13.993Z,8.43
2019-04-29T15:47:45.733Z,6.73
2019-04-29T15:50:18.724Z,7.93
2019-04-29T15:52:48.777Z,8.10
2019-04-29T15:55:17.325Z,7.07
2019-04-29T15:57:50.152Z,6.70
2019-04-29T16:00:22.065Z,7.73
2019-04-29T16:02:46.907Z,6.60
2019-04-29T16:05:34.982Z,6.80
2019-04-29T16:08:12.033Z,7.10
2019-04-29T16:11:00.485Z,6.57
2019-04-29T16:13:31.209Z,6.80
2019-04-29T16:15:59.711Z,6.60
2019-04-29T16:18:33.001Z,7.47
2019-04-29T16:21:04.160Z,6.33
2019-04-29T16:23:38.571Z,5.77
2019-04-29T16:26:07.348Z,10.93
2019-04-29T16:28:39.906Z,5.67
2019-04-29T16:31:12.191Z,7.00
2019-04-29T16:33:47.437Z,7.13
2019-04-29T16:36:16.802Z,6.07
2019-04-29T16:38:46.257Z,13.28
2019-04-29T16:41:21.221Z,5.17
2019-04-29T16:43:51.475Z,5.47
2019-04-29T16:46:35.303Z,4.67
2019-04-29T16:48:57.882Z,4.45
2019-04-29T16:51:27.876Z,4.50
2019-04-29T16:53:57.550Z,5.13
2019-04-29T16:56:28.962Z,5.87
2019-04-29T16:58:57.596Z,8.43
2019-04-29T17:01:27.682Z,4.55
2019-04-29T17:04:04.923Z,5.70
2019-04-29T17:06:29.036Z,4.27
2019-04-29T17:09:05.067Z,5.27
2019-04-29T17:11:38.882Z,4.93
2019-04-29T17:14:10.069Z,5.00
2019-04-29T17:16:40.608Z,4.73
2019-04-29T17:19:28.510Z,5.73
2019-04-29T17:22:24.122Z,5.20
2019-04-29T17:24:28.252Z,4.83
2019-04-29T17:27:04.645Z,6.87
2019-04-29T17:29:49.150Z,5.73
2019-04-29T17:32:42.002Z,6.33
2019-04-29T17:35:01.430Z,8.13
2019-04-29T17:37:36.046Z,5.63
2019-04-29T17:40:07.142Z,4.73
2019-04-29T17:42:37.537Z,6.97
2019-04-29T17:45:11.968Z,6.30
2019-04-29T17:48:07.216Z,4.50
2019-04-29T17:50:46.577Z,6.00
2019-04-29T17:53:24.985Z,5.27
2019-04-29T17:56:00.898Z,5.93
2019-04-29T17:58:51.384Z,4.83
2019-04-29T18:01:25.956Z,10.85
2019-04-29T18:04:06.065Z,5.58
2019-04-29T18:06:39.040Z,6.73
2019-04-29T18:09:29.071Z,6.10
2019-04-29T18:11:58.940Z,8.53
2019-04-29T18:14:36.554Z,8.03
2019-04-29T18:16:58.470Z,9.87
2019-04-29T18:19:47.302Z,11.30
2019-04-29T18:22:35.937Z,9.25
2019-04-29T18:25:13.133Z,10.57
2019-04-29T18:27:42.761Z,10.40
2019-04-29T18:30:15.773Z,8.78
2019-04-29T18:32:46.648Z,10.47
2019-04-29T18:35:13.513Z,9.27
2019-04-29T18:37:46.329Z,9.10
2019-04-29T18:40:16.258Z,9.53
2019-04-29T18:42:48.398Z,10.83
2019-04-29T18:45:17.518Z,15.20
2019-04-29T18:47:46.013Z,11.87
2019-04-29T18:50:15.975Z,9.60
2019-04-29T18:52:45.898Z,9.10
2019-04-29T18:55:15.989Z,11.23
2019-04-29T18:57:46.551Z,10.67
2019-04-29T19:00:20.050Z,12.25
2019-04-29T19:02:52.493Z,11.40
2019-04-29T19:05:32.310Z,12.13
2019-04-29T19:08:11.403Z,12.63
2019-04-29T19:10:34.483Z,11.87
2019-04-29T19:13:04.573Z,12.97
2019-04-29T19:15:30.045Z,13.83
2019-04-29T19:18:02.002Z,13.97
2019-04-29T19:20:35.831Z,13.73
2019-04-29T19:23:10.119Z,16.63
2019-04-29T19:25:35.457Z,15.13
2019-04-29T19:28:14.044Z,14.93
2019-04-29T19:30:38.505Z,17.83
2019-04-29T19:33:09.015Z,17.23
2019-04-29T19:35:38.761Z,16.65
2019-04-29T19:38:12.413Z,17.03
2019-04-29T19:40:42.403Z,18.57
2019-04-29T19:43:17.430Z,16.67
2019-04-29T19:45:44.738Z,18.70
2019-04-29T19:48:17.073Z,20.55
2019-04-29T19:50:50.155Z,18.77
2019-04-29T19:53:16.767Z,20.27
2019-04-29T19:55:45.724Z,19.37
2019-04-29T19:58:28.205Z,19.77
2019-04-29T20:00:50.704Z,17.70
2019-04-29T20:03:31.042Z,20.07
2019-04-29T20:06:09.198Z,17.70
2019-04-29T20:08:52.703Z,21.53
2019-04-29T20:11:14.656Z,16.60
2019-04-29T20:13:42.310Z,17.27
2019-04-29T20:16:24.978Z,18.07
2019-04-29T20:19:07.026Z,18.27
2019-04-29T20:21:35.972Z,17.37
2019-04-29T20:24:09.337Z,17.73
2019-04-29T20:26:37.497Z,17.90
2019-04-29T20:29:09.730Z,17.90
2019-04-29T20:31:39.137Z,17.60
2019-04-29T20:34:08.810Z,17.77
2019-04-29T20:36:42.976Z,21.43
2019-04-29T20:39:16.294Z,19.77
2019-04-29T20:41:48.729Z,18.47
2019-04-29T20:44:17.274Z,20.47
2019-04-29T20:47:14.118Z,19.90
2019-04-29T20:49:36.056Z,18.83
2019-04-29T20:52:05.567Z,18.50
2019-04-29T20:54:39.066Z,18.67
2019-04-29T20:57:17.736Z,17.47
2019-04-29T20:59:48.827Z,16.25
2019-04-29T21:02:29.480Z,18.17
2019-04-29T21:04:49.618Z,18.47
2019-04-29T21:07:23.959Z,21.33
2019-04-29T21:09:50.023Z,17.80
2019-04-29T21:12:34.773Z,18.80
2019-04-29T21:15:14.916Z,17.20
2019-04-29T21:17:45.235Z,17.10
2019-04-29T21:20:16.156Z,16.60
2019-04-29T21:22:52.563Z,18.27
2019-04-29T21:25:24.682Z,18.17
2019-04-29T21:27:58.257Z,16.48
2019-04-29T21:30:35.022Z,17.97
2019-04-29T21:32:59.287Z,18.60
2019-04-29T21:35:30.117Z,18.23
2019-04-29T21:38:02.921Z,17.07
2019-04-29T21:40:41.833Z,16.50
2019-04-29T21:43:17.600Z,16.40
2019-04-29T21:45:48.442Z,15.93
2019-04-29T21:48:23.210Z,17.10
2019-04-29T21:50:51.010Z,17.70
2019-04-29T21:53:26.655Z,17.10
2019-04-29T21:55:59.659Z,16.37
2019-04-29T21:58:32.884Z,15.67
2019-04-29T22:01:04.933Z,17.17
2019-04-29T22:03:35.543Z,16.75
2019-04-29T22:06:04.089Z,16.13
2019-04-29T22:08:35.351Z,19.37
2019-04-29T22:11:04.780Z,16.60
2019-04-29T22:13:35.531Z,15.33
2019-04-29T22:16:04.603Z,16.20
2019-04-29T22:18:33.173Z,17.20
2019-04-29T22:21:06.393Z,18.00
2019-04-29T22:23:35.763Z,17.00
2019-04-29T22:26:08.121Z,16.27
2019-04-29T22:28:38.120Z,16.70
2019-04-29T22:33:45.786Z,15.67
2019-04-29T22:36:18.123Z,16.83
2019-04-29T22:38:48.563Z,15.80
2019-04-29T22:41:34.467Z,17.37
2019-04-29T22:44:04.980Z,14.47
2019-04-29T22:46:39.930Z,16.03
2019-04-29T22:49:06.217Z,15.63
2019-04-29T22:51:36.141Z,14.90
2019-04-29T22:54:09.350Z,15.87
2019-04-29T22:56:40.509Z,16.20
2019-04-29T22:59:09.107Z,17.00
2019-04-29T23:01:42.057Z,16.17
2019-04-29T23:04:09.661Z,16.23
2019-04-29T23:06:46.583Z,17.17
2019-04-29T23:09:13.104Z,17.50
2019-04-29T23:11:47.821Z,16.27
2019-04-29T23:14:19.288Z,20.50
2019-04-29T23:16:47.826Z,16.93
2019-04-29T23:19:19.128Z,17.90
2019-04-29T23:21:49.393Z,18.60
2019-04-29T23:24:35.594Z,15.30
2019-04-29T23:27:06.073Z,18.27
2019-04-29T23:29:37.073Z,16.30
2019-04-29T23:32:08.202Z,15.67
2019-04-29T23:34:40.162Z,16.15
2019-04-29T23:37:08.768Z,18.90
2019-04-29T23:39:38.637Z,16.65
2019-04-29T23:42:12.251Z,17.57
2019-04-29T23:44:42.501Z,17.37
2019-04-29T23:47:13.003Z,16.23
2019-04-29T23:49:42.841Z,16.70
2019-04-29T23:52:13.439Z,16.10
2019-04-29T23:54:46.966Z,17.15
2019-04-29T23:57:16.464Z,15.40
2019-04-29T23:59:57.621Z,15.17
